Wilson Maas — 8PSZ — position and weather

sailwx.info

Track history (hours):
 
Tides and Currents Weather Stations Pressure Air Temp Water Temp Dewpoint Dewpoint Depression Visibility Wind Speed Wind Dir Waves Ship Positions

Wilson Maas

Last reported at 2017-Oct-21 21:45 UTC. Time now 2017-Oct-22 08:34 UTC.
Position N 58°11' E 005°34'.

Length 78 m; draft 3.7 m.

Type: Ship. MMSI: 314217000.

Date/timePositionNaut miles runAvg speedWind from/ knotsBaromVisibWave heightAir tempDewpointWater temp
2017-Oct-21 21:45N 58°11' E 005°34'1 4.8
2017-Oct-21 21:30N 58°13' E 005°34'2 4.5
2017-Oct-21 21:00N 58°15' E 005°33'2 4.5
2017-Oct-21 20:30N 58°17' E 005°33'2 4.2
2017-Oct-21 20:00N 58°19' E 005°33'2 4.3
2017-Oct-21 19:30N 58°21' E 005°33'2 4.8
2017-Oct-21 19:00N 58°24' E 005°33'2 4.4
2017-Oct-21 18:30N 58°26' E 005°33'2 4.2
2017-Oct-21 18:00N 58°28' E 005°33'3 5.1
2017-Oct-21 17:30N 58°31' E 005°32'3 5.5
2017-Oct-21 17:00N 58°33' E 005°31'3 6.4
2017-Oct-21 16:30N 58°36' E 005°28'3 6.8
2017-Oct-21 16:01N 58°39' E 005°26'3 6.8
2017-Oct-21 15:31N 58°42' E 005°23'4 7.2
2017-Oct-21 15:01N 58°45' E 005°20'8 7.7
2017-Oct-21 14:01N 58°52' E 005°13'4 7.6
2017-Oct-21 13:30N 58°56' E 005°10'4 7.1
2017-Oct-21 13:00N 58°59' E 005°06'4 7.3
2017-Oct-21 12:30N 59°02' E 005°02'4 7.1
2017-Oct-21 12:01N 59°04' E 004°57'4 7.0
2017-Oct-21 11:30N 59°07' E 004°52'36 6.6
2017-Oct-21 05:58N 59°43' E 004°38'4 7.7
2017-Oct-21 05:30N 59°46' E 004°38'4 7.7
2017-Oct-21 05:00N 59°50' E 004°37'4 8.1
2017-Oct-21 04:30N 59°54' E 004°37'4 8.1
2017-Oct-21 04:00N 59°58' E 004°36'4 8.5
2017-Oct-21 03:30N 60°02' E 004°35'4 8.4
2017-Oct-21 03:00N 60°07' E 004°34'4 8.3
2017-Oct-21 02:30N 60°11' E 004°34'4 7.8
2017-Oct-21 02:00N 60°15' E 004°34'4 7.9
2017-Oct-21 01:30N 60°19' E 004°33'4 8.9
2017-Oct-21 01:00N 60°23' E 004°32'5 9.2
2017-Oct-21 00:30N 60°28' E 004°31'4 8.8
2017-Oct-21 00:00N 60°32' E 004°30'4 8.1
2017-Oct-20 23:30N 60°36' E 004°30'4 8.5
2017-Oct-20 23:00N 60°40' E 004°29'4 8.4
2017-Oct-20 22:30N 60°44' E 004°29'4 8.6
2017-Oct-20 22:00N 60°49' E 004°28'4 8.0
2017-Oct-20 21:30N 60°53' E 004°28'4 8.1
2017-Oct-20 21:01N 60°57' E 004°27'4 8.6
2017-Oct-20 20:31N 61°01' E 004°27'4 8.7
2017-Oct-20 20:00N 61°05' E 004°27'5 9.5
2017-Oct-20 19:30N 61°10' E 004°27'5 9.8
2017-Oct-20 19:00N 61°15' E 004°27'5 9.2
2017-Oct-20 18:30N 61°20' E 004°27'4 9.0
2017-Oct-20 18:00N 61°24' E 004°26'4 8.9
2017-Oct-20 17:30N 61°29' E 004°26'5 9.5
2017-Oct-20 17:00N 61°33' E 004°26'5 9.3
2017-Oct-20 16:30N 61°38' E 004°27'5 9.1
2017-Oct-20 16:00N 61°42' E 004°29'5 9.1
2017-Oct-20 15:30N 61°47' E 004°32'4 8.6
2017-Oct-20 15:00N 61°51' E 004°36'9 9.2
2017-Oct-20 14:00N 61°59' E 004°43'5 9.7
2017-Oct-20 13:30N 62°04' E 004°48'5 9.9
2017-Oct-20 13:00N 62°08' E 004°54'5 9.9
2017-Oct-20 12:30N 62°12' E 004°60'5 9.9
2017-Oct-20 12:00N 62°16' E 005°05'5 9.8
2017-Oct-20 11:30N 62°20' E 005°11'4 8.9
2017-Oct-20 11:00N 62°24' E 005°17'5 9.1
2017-Oct-20 10:30N 62°27' E 005°23'5 9.5
2017-Oct-20 10:00N 62°31' E 005°30'5 9.3
2017-Oct-20 09:30N 62°34' E 005°37'5 9.2
2017-Oct-20 09:00N 62°37' E 005°44'4 8.9
2017-Oct-20 08:30N 62°40' E 005°51'5 9.5
2017-Oct-20 08:00N 62°44' E 005°58'5 9.9
2017-Oct-20 07:30N 62°47' E 006°05'510.0
2017-Oct-20 07:00N 62°51' E 006°13'510.3
2017-Oct-20 06:30N 62°54' E 006°22'510.0
2017-Oct-20 06:00N 62°57' E 006°31'5 9.5
2017-Oct-20 05:30N 62°60' E 006°39'5 9.6
2017-Oct-20 05:00N 63°03' E 006°47'5 9.1
2017-Oct-20 04:30N 63°06' E 006°55'5 9.4
2017-Oct-20 04:00N 63°09' E 007°03'5 9.8
2017-Oct-20 03:30N 63°11' E 007°12'5 9.9
2017-Oct-20 03:01N 63°13' E 007°22'5 9.3
2017-Oct-20 02:31N 63°15' E 007°32'4 8.8
2017-Oct-20 02:00N 63°14' E 007°41'4 8.7
2017-Oct-20 01:31N 63°11' E 007°47'4 7.0
2017-Oct-20 01:01N 63°07' E 007°46'0 0.4
2017-Oct-20 00:28N 63°07' E 007°46'0 0.0
2017-Oct-19 23:58N 63°07' E 007°46'0 0.0
2017-Oct-19 23:28N 63°07' E 007°46'0 0.0
2017-Oct-19 22:58N 63°07' E 007°46'0 0.0
2017-Oct-19 22:28N 63°07' E 007°46'0 0.0
2017-Oct-19 21:58N 63°07' E 007°46'0 0.0
2017-Oct-19 21:28N 63°07' E 007°46'0 0.0
2017-Oct-19 20:58N 63°07' E 007°46'0 0.0
2017-Oct-19 20:28N 63°07' E 007°46'0 0.0
2017-Oct-19 19:58N 63°07' E 007°46'0 0.0
2017-Oct-19 19:28N 63°07' E 007°46'0 0.0
2017-Oct-19 18:58N 63°07' E 007°46'0 0.0
2017-Oct-19 18:28N 63°07' E 007°46'0 0.0
2017-Oct-19 17:58N 63°07' E 007°46'0 0.0
2017-Oct-19 17:28N 63°07' E 007°46'0 0.0
2017-Oct-19 16:58N 63°07' E 007°46'0 0.0
2017-Oct-19 16:28N 63°07' E 007°46'0 0.0
2017-Oct-19 15:58N 63°07' E 007°46'0 0.0
2017-Oct-19 15:28N 63°07' E 007°46'0 0.0
2017-Oct-19 14:58N 63°07' E 007°46'0 0.0
2017-Oct-19 14:28N 63°07' E 007°46'0 0.0
2017-Oct-19 13:58N 63°07' E 007°46'0 0.0
2017-Oct-19 13:28N 63°07' E 007°46'0 0.0
2017-Oct-19 12:58N 63°07' E 007°46'0 0.0
2017-Oct-19 12:28N 63°07' E 007°46'0 0.0
2017-Oct-19 11:58N 63°07' E 007°46'0 0.0
2017-Oct-19 11:28N 63°07' E 007°46'0 0.0
2017-Oct-19 10:58N 63°07' E 007°46'0 0.0
2017-Oct-19 10:28N 63°07' E 007°46'0 0.0
2017-Oct-19 09:58N 63°07' E 007°46'0 0.0
2017-Oct-19 09:28N 63°07' E 007°46'0 0.0
2017-Oct-19 08:58N 63°07' E 007°46'0 0.0
2017-Oct-19 08:28N 63°07' E 007°46'0 0.0
2017-Oct-19 07:58N 63°07' E 007°46'0 0.0
2017-Oct-19 07:28N 63°07' E 007°46'0 0.0
2017-Oct-19 06:59N 63°07' E 007°46'0 0.0
2017-Oct-19 06:28N 63°07' E 007°46'0 0.0
2017-Oct-19 05:58N 63°07' E 007°46'0 0.0
2017-Oct-19 05:28N 63°07' E 007°46'0 0.0
2017-Oct-19 04:58N 63°07' E 007°46'0 0.0
2017-Oct-19 04:28N 63°07' E 007°46'0 0.0
2017-Oct-19 03:58N 63°07' E 007°46'0 0.0
2017-Oct-19 03:28N 63°07' E 007°46'0 0.0
2017-Oct-19 02:58N 63°07' E 007°46'0 0.0
2017-Oct-19 02:28N 63°07' E 007°46'0 0.0
2017-Oct-19 01:58N 63°07' E 007°46'0 0.0
2017-Oct-19 01:28N 63°07' E 007°46'0 0.0
2017-Oct-19 00:58N 63°07' E 007°46'0 0.0
2017-Oct-19 00:28N 63°07' E 007°46'0 0.0
2017-Oct-18 23:58N 63°07' E 007°46'0 0.0
2017-Oct-18 23:28N 63°07' E 007°46'0 0.0
2017-Oct-18 22:58N 63°07' E 007°46'0 0.0
2017-Oct-18 22:28N 63°07' E 007°46'0 0.0
2017-Oct-18 21:58N 63°07' E 007°46'0 0.0
2017-Oct-18 21:28N 63°07' E 007°46'0 0.0
2017-Oct-18 20:58N 63°07' E 007°46'0 0.0
2017-Oct-18 20:28N 63°07' E 007°46'0 0.0
2017-Oct-18 19:58N 63°07' E 007°46'0 0.0
2017-Oct-18 19:28N 63°07' E 007°46'0 0.0
2017-Oct-18 18:58N 63°07' E 007°46'0 0.0
2017-Oct-18 18:28N 63°07' E 007°46'0 0.0
2017-Oct-18 17:58N 63°07' E 007°46'0 0.0
2017-Oct-18 17:28N 63°07' E 007°46'0 0.0
2017-Oct-18 16:58N 63°07' E 007°46'0 0.0
2017-Oct-18 16:28N 63°07' E 007°46'0 0.0
2017-Oct-18 15:58N 63°07' E 007°46'0 0.0
2017-Oct-18 15:28N 63°07' E 007°46'0 0.0
2017-Oct-18 14:58N 63°07' E 007°46'0 0.0
2017-Oct-18 13:58N 63°07' E 007°46'0 0.0
2017-Oct-18 13:28N 63°07' E 007°46'0 0.0
2017-Oct-18 12:58N 63°07' E 007°46'0 0.0
2017-Oct-18 12:28N 63°07' E 007°46'0 0.0
2017-Oct-18 11:58N 63°07' E 007°46'0 0.0
2017-Oct-18 11:28N 63°07' E 007°46'0 0.0
2017-Oct-18 10:58N 63°07' E 007°46'0 0.0
2017-Oct-18 10:28N 63°07' E 007°46'0 0.0
2017-Oct-18 09:58N 63°07' E 007°46'0 0.0
2017-Oct-18 09:28N 63°07' E 007°46'0 0.0
2017-Oct-18 08:58N 63°07' E 007°46'0 0.0
2017-Oct-18 08:28N 63°07' E 007°46'0 0.0
2017-Oct-18 07:58N 63°07' E 007°46'0 0.0
2017-Oct-18 07:28N 63°07' E 007°46'0 0.0
2017-Oct-18 06:58N 63°07' E 007°46'0 0.0
2017-Oct-18 06:28N 63°07' E 007°46'0 0.0
2017-Oct-18 05:58N 63°07' E 007°46'0 0.0
2017-Oct-18 05:28N 63°07' E 007°46'0 0.0
2017-Oct-18 04:58N 63°07' E 007°46'0 0.0
2017-Oct-18 04:28N 63°07' E 007°46'0 0.0
2017-Oct-18 03:58N 63°07' E 007°46'0 0.0
2017-Oct-18 03:28N 63°07' E 007°46'0 0.0
2017-Oct-18 02:58N 63°07' E 007°46'0 0.0
2017-Oct-18 02:28N 63°07' E 007°46'0 0.0
2017-Oct-18 01:58N 63°07' E 007°46'0 0.0
2017-Oct-18 01:28N 63°07' E 007°46'0 0.0
2017-Oct-18 00:58N 63°07' E 007°46'0 0.0
2017-Oct-18 00:28N 63°07' E 007°46'0 0.0
2017-Oct-17 23:58N 63°07' E 007°46'0 0.0
2017-Oct-17 23:28N 63°07' E 007°46'0 0.0
2017-Oct-17 22:58N 63°07' E 007°46'0 0.0
2017-Oct-17 22:28N 63°07' E 007°46'0 0.0
2017-Oct-17 21:58N 63°07' E 007°46'0 0.0
2017-Oct-17 21:28N 63°07' E 007°46'0 0.0
2017-Oct-17 20:58N 63°07' E 007°46'0 0.0
2017-Oct-17 20:28N 63°07' E 007°46'0 0.0
2017-Oct-17 19:58N 63°07' E 007°46'0 0.0
2017-Oct-17 19:28N 63°07' E 007°46'0 0.0
2017-Oct-17 18:58N 63°07' E 007°46'0 0.0
2017-Oct-17 18:28N 63°07' E 007°46'0 0.0
2017-Oct-17 17:58N 63°07' E 007°46'0 0.0
2017-Oct-17 17:28N 63°07' E 007°46'0 0.0
2017-Oct-17 16:58N 63°07' E 007°46'0 0.0
2017-Oct-17 16:28N 63°07' E 007°46'0 0.0
2017-Oct-17 15:58N 63°07' E 007°46'0 0.0
2017-Oct-17 15:28N 63°07' E 007°46'0 0.0
2017-Oct-17 14:58N 63°07' E 007°46'0 0.0
2017-Oct-17 14:28N 63°07' E 007°46'0 0.0
2017-Oct-17 13:58N 63°07' E 007°46'0 0.0
2017-Oct-17 13:28N 63°07' E 007°46'0 0.0
2017-Oct-17 12:58N 63°07' E 007°46'0 0.0
2017-Oct-17 12:28N 63°07' E 007°46'0 0.0
2017-Oct-17 11:58N 63°07' E 007°46'0 0.0
2017-Oct-17 11:28N 63°07' E 007°46'0 0.0
2017-Oct-17 10:58N 63°07' E 007°46'0 0.0
2017-Oct-17 10:28N 63°07' E 007°46'0 0.0
2017-Oct-17 09:58N 63°07' E 007°46'0 0.0
2017-Oct-17 09:28N 63°07' E 007°46'0 0.0
2017-Oct-17 08:58N 63°07' E 007°46'0 0.0
2017-Oct-17 08:28N 63°07' E 007°46'0 0.0
2017-Oct-17 07:58N 63°07' E 007°46'0 0.0
2017-Oct-17 07:28N 63°07' E 007°46'0 0.0
2017-Oct-17 06:58N 63°07' E 007°46'0 0.0
2017-Oct-17 06:28N 63°07' E 007°46'0 0.0
2017-Oct-17 05:58N 63°07' E 007°46'0 0.0
2017-Oct-17 05:28N 63°07' E 007°46'0 0.0
2017-Oct-17 04:58N 63°07' E 007°46'0 0.0
2017-Oct-17 04:28N 63°07' E 007°46'0 0.0
2017-Oct-17 03:58N 63°07' E 007°46'0 0.0
2017-Oct-17 03:28N 63°07' E 007°46'0 0.0
2017-Oct-17 02:58N 63°07' E 007°46'0 0.0
2017-Oct-17 02:28N 63°07' E 007°46'0 0.0
2017-Oct-17 01:58N 63°07' E 007°46'0 0.0
2017-Oct-17 01:28N 63°07' E 007°46'0 0.0
2017-Oct-17 00:58N 63°07' E 007°46'0 0.0
2017-Oct-17 00:28N 63°07' E 007°46'0 0.0
2017-Oct-16 23:58N 63°07' E 007°46'0 0.0
2017-Oct-16 23:28N 63°07' E 007°46'0 0.0
2017-Oct-16 22:58N 63°07' E 007°46'0 0.0
2017-Oct-16 22:28N 63°07' E 007°46'0 0.0
2017-Oct-16 21:58N 63°07' E 007°46'0 0.0
2017-Oct-16 21:28N 63°07' E 007°46'0 0.0
2017-Oct-16 20:58N 63°07' E 007°46'0 0.0
2017-Oct-16 20:28N 63°07' E 007°46'0 0.0
2017-Oct-16 19:58N 63°07' E 007°46'0 0.0
2017-Oct-16 19:28N 63°07' E 007°46'0 0.0
2017-Oct-16 18:59N 63°07' E 007°46'1 2.1
2017-Oct-16 18:30N 63°08' E 007°47'4 8.5
2017-Oct-16 18:00N 63°12' E 007°50'5 9.8
2017-Oct-16 17:30N 63°14' E 008°00'5 9.7
2017-Oct-16 17:00N 63°17' E 008°09'5 9.5
2017-Oct-16 16:30N 63°20' E 008°17'5 9.6
2017-Oct-16 16:00N 63°23' E 008°26'5 9.7
2017-Oct-16 15:30N 63°25' E 008°36'5 9.9
2017-Oct-16 15:00N 63°27' E 008°46'1010.0
2017-Oct-16 14:00N 63°30' E 009°07'5 9.6
2017-Oct-16 13:30N 63°33' E 009°15'510.6
2017-Oct-16 13:00N 63°38' E 009°15'510.8
2017-Oct-16 12:30N 63°44' E 009°15'510.1
2017-Oct-16 12:00N 63°49' E 009°17'5 9.6
2017-Oct-16 11:30N 63°53' E 009°21'5 9.7
2017-Oct-16 11:00N 63°58' E 009°24'510.4
2017-Oct-16 10:30N 64°03' E 009°27'510.4
2017-Oct-16 10:00N 64°08' E 009°32'5 9.8
2017-Oct-16 09:30N 64°12' E 009°38'4 8.9
2017-Oct-16 09:00N 64°16' E 009°44'4 8.8
2017-Oct-16 08:30N 64°19' E 009°50'4 8.8
2017-Oct-16 08:00N 64°22' E 009°56'4 8.6
2017-Oct-16 07:30N 64°26' E 010°03'4 8.2
2017-Oct-16 07:00N 64°29' E 010°10'4 7.6
2017-Oct-16 06:30N 64°31' E 010°16'4 7.1
2017-Oct-16 06:00N 64°33' E 010°23'3 6.7
2017-Oct-16 05:30N 64°36' E 010°27'5 9.1
2017-Oct-16 05:00N 64°41' E 010°23'4 8.4
2017-Oct-16 04:30N 64°45' E 010°21'15 6.8
2017-Oct-16 02:19N 64°59' E 010°25'2 6.8
2017-Oct-16 02:00N 65°01' E 010°26'3 5.6
2017-Oct-16 01:30N 65°04' E 010°28'3 5.7
2017-Oct-16 01:00N 65°07' E 010°31'3 6.7
2017-Oct-16 00:30N 65°10' E 010°33'4 7.3
2017-Oct-16 00:00N 65°13' E 010°36'4 7.3
2017-Oct-15 23:30N 65°17' E 010°39'3 6.7
2017-Oct-15 23:00N 65°20' E 010°42'4 7.4
2017-Oct-15 22:30N 65°23' E 010°45'4 7.5
2017-Oct-15 22:00N 65°27' E 010°48'4 7.6
2017-Oct-15 21:30N 65°30' E 010°51'50 7.3
2017-Oct-15 14:44N 66°15' E 011°44'6 7.9
2017-Oct-15 14:00N 66°16' E 011°59'4 8.5
2017-Oct-15 13:30N 66°17' E 012°09'4 8.8
2017-Oct-15 13:00N 66°16' E 012°20'5 9.4
2017-Oct-15 12:30N 66°15' E 012°31'5 9.7
2017-Oct-15 11:59N 66°13' E 012°42'5 9.9
2017-Oct-15 11:30N 66°10' E 012°51'510.0
2017-Oct-15 11:00N 66°10' E 013°03'5 9.9
2017-Oct-15 10:30N 66°13' E 013°14'4 8.8
2017-Oct-15 10:00N 66°14' E 013°24'510.0
2017-Oct-15 09:30N 66°14' E 013°37'5 9.6
2017-Oct-15 09:00N 66°15' E 013°49'5 9.3
2017-Oct-15 08:29N 66°17' E 013°59'3 6.3
2017-Oct-15 07:59N 66°18' E 014°07'0 0.0
2017-Oct-15 07:29N 66°18' E 014°07'0 0.0
2017-Oct-15 06:59N 66°18' E 014°07'0 0.0
2017-Oct-15 06:29N 66°18' E 014°07'0 0.0
2017-Oct-15 05:59N 66°18' E 014°07'0 0.0
2017-Oct-15 05:29N 66°18' E 014°07'0 0.0
2017-Oct-15 04:59N 66°18' E 014°07'0 0.0
2017-Oct-15 04:29N 66°18' E 014°07'0 0.0
2017-Oct-15 03:59N 66°18' E 014°07'0 0.0
2017-Oct-15 03:29N 66°18' E 014°07'0 0.0
2017-Oct-15 02:59N 66°18' E 014°07'0 0.0
2017-Oct-15 02:29N 66°18' E 014°07'0 0.0
2017-Oct-15 01:59N 66°18' E 014°07'0 0.0
2017-Oct-15 01:26N 66°18' E 014°07'0 0.0
2017-Oct-15 00:59N 66°18' E 014°07'0 0.0
2017-Oct-15 00:29N 66°18' E 014°07'0 0.0
2017-Oct-14 23:59N 66°18' E 014°07'0 0.0
2017-Oct-14 23:29N 66°18' E 014°07'0 0.0
2017-Oct-14 22:59N 66°18' E 014°07'0 0.0
2017-Oct-14 22:29N 66°18' E 014°07'0 0.0
2017-Oct-14 21:59N 66°18' E 014°07'0 0.0
2017-Oct-14 21:29N 66°18' E 014°07'0 0.0
2017-Oct-14 20:59N 66°18' E 014°07'0 0.0
2017-Oct-14 20:29N 66°18' E 014°07'0 0.0
2017-Oct-14 19:59N 66°18' E 014°07'0 0.0
2017-Oct-14 19:29N 66°18' E 014°07'0 0.0
2017-Oct-14 18:59N 66°18' E 014°07'0 0.0
2017-Oct-14 18:26N 66°18' E 014°07'0 0.0
2017-Oct-14 17:59N 66°18' E 014°07'0 0.0
2017-Oct-14 17:29N 66°18' E 014°07'0 0.0
2017-Oct-14 16:59N 66°18' E 014°07'0 0.0
2017-Oct-14 16:29N 66°18' E 014°07'0 0.0
2017-Oct-14 15:59N 66°18' E 014°07'0 0.0
2017-Oct-14 15:29N 66°18' E 014°07'0 0.0
2017-Oct-14 14:59N 66°18' E 014°07'0 0.0
2017-Oct-14 14:29N 66°18' E 014°07'0 0.0
2017-Oct-14 13:59N 66°18' E 014°07'0 0.0
2017-Oct-14 13:29N 66°18' E 014°07'0 0.0
2017-Oct-14 12:59N 66°18' E 014°07'0 0.0
2017-Oct-14 12:26N 66°18' E 014°07'0 0.0
2017-Oct-14 11:59N 66°18' E 014°07'0 0.0
2017-Oct-14 11:26N 66°18' E 014°07'0 0.0
2017-Oct-14 10:59N 66°18' E 014°07'0 0.0
2017-Oct-14 10:29N 66°18' E 014°07'0 0.0
2017-Oct-14 09:59N 66°18' E 014°07'0 0.0
2017-Oct-14 09:29N 66°18' E 014°07'0 0.0
2017-Oct-14 08:59N 66°18' E 014°07'0 0.0
2017-Oct-14 08:29N 66°18' E 014°07'0 0.0
2017-Oct-14 07:59N 66°18' E 014°07'0 0.0
2017-Oct-14 07:29N 66°18' E 014°07'0 0.0
2017-Oct-14 06:59N 66°18' E 014°07'0 0.0
2017-Oct-14 06:29N 66°18' E 014°07'0 0.0
2017-Oct-14 05:59N 66°18' E 014°07'0 0.0
2017-Oct-14 05:29N 66°18' E 014°07'0 0.0
2017-Oct-14 04:59N 66°18' E 014°07'0 0.0
2017-Oct-14 04:29N 66°18' E 014°07'0 0.0
2017-Oct-14 03:59N 66°18' E 014°07'0 0.0
2017-Oct-14 03:29N 66°18' E 014°07'0 0.0
2017-Oct-14 02:56N 66°18' E 014°07'0 0.0
2017-Oct-14 02:29N 66°18' E 014°07'0 0.0
2017-Oct-14 01:59N 66°18' E 014°07'0 0.0
2017-Oct-14 01:29N 66°18' E 014°07'0 0.0
2017-Oct-14 00:59N 66°18' E 014°07'0 0.0
2017-Oct-14 00:29N 66°18' E 014°07'0 0.0
2017-Oct-13 23:59N 66°18' E 014°07'0 0.0
2017-Oct-13 23:29N 66°18' E 014°07'0 0.0
2017-Oct-13 22:59N 66°18' E 014°07'0 0.0
2017-Oct-13 22:29N 66°18' E 014°07'0 0.0
2017-Oct-13 21:59N 66°18' E 014°07'0 0.0
2017-Oct-13 21:29N 66°18' E 014°07'0 0.0
2017-Oct-13 20:59N 66°18' E 014°07'0 0.0
2017-Oct-13 20:29N 66°18' E 014°07'0 0.0
2017-Oct-13 19:59N 66°18' E 014°07'0 0.0
2017-Oct-13 19:29N 66°18' E 014°07'0 0.0
2017-Oct-13 18:59N 66°18' E 014°07'0 0.0
2017-Oct-13 18:29N 66°18' E 014°07'0 0.0
2017-Oct-13 17:59N 66°18' E 014°07'0 0.0
2017-Oct-13 17:29N 66°18' E 014°07'0 0.0
2017-Oct-13 16:59N 66°18' E 014°07'0 0.0
2017-Oct-13 16:29N 66°18' E 014°07'0 0.0
2017-Oct-13 15:59N 66°18' E 014°07'0 0.0
2017-Oct-13 15:29N 66°18' E 014°07'0 0.0
2017-Oct-13 14:59N 66°18' E 014°07'0 0.0
2017-Oct-13 14:29N 66°18' E 014°07'0 0.0
2017-Oct-13 13:59N 66°18' E 014°07'0 0.0
2017-Oct-13 13:29N 66°18' E 014°07'0 0.0
2017-Oct-13 12:59N 66°18' E 014°07'0 0.1
2017-Oct-13 12:29N 66°18' E 014°07'0 0.0
2017-Oct-13 11:59N 66°18' E 014°07'0 0.0
2017-Oct-13 11:29N 66°18' E 014°07'0 0.0
2017-Oct-13 10:59N 66°18' E 014°07'0 0.0
2017-Oct-13 10:29N 66°18' E 014°07'0 0.0
2017-Oct-13 09:59N 66°18' E 014°07'0 0.0
2017-Oct-13 09:29N 66°18' E 014°07'0 0.0
2017-Oct-13 08:59N 66°18' E 014°07'0 0.0
2017-Oct-13 08:29N 66°18' E 014°07'0 0.0
2017-Oct-13 07:59N 66°18' E 014°07'0 0.0
2017-Oct-13 07:29N 66°18' E 014°07'0 0.0
2017-Oct-13 06:59N 66°18' E 014°07'0 0.0
2017-Oct-13 06:29N 66°18' E 014°07'0 0.0
2017-Oct-13 05:59N 66°18' E 014°07'0 0.0
2017-Oct-13 05:29N 66°18' E 014°07'0 0.0
2017-Oct-13 04:59N 66°18' E 014°07'0 0.0
2017-Oct-13 04:29N 66°18' E 014°07'0 0.8
2017-Oct-13 03:59N 66°19' E 014°07'1 1.9
2017-Oct-13 03:30N 66°20' E 014°08'0 0.0
2017-Oct-13 03:00N 66°20' E 014°08'0 0.0
2017-Oct-13 02:30N 66°20' E 014°08'0 0.0
2017-Oct-13 02:00N 66°20' E 014°08'0 0.0
2017-Oct-13 01:30N 66°20' E 014°08'0 0.0
2017-Oct-13 01:00N 66°20' E 014°08'0 0.0
2017-Oct-13 00:30N 66°20' E 014°08'0 0.0
2017-Oct-13 00:00N 66°20' E 014°08'0 0.0
2017-Oct-12 23:30N 66°20' E 014°08'0 0.0
2017-Oct-12 23:00N 66°20' E 014°08'0 0.0
2017-Oct-12 22:30N 66°20' E 014°08'0 0.0
2017-Oct-12 21:57N 66°20' E 014°08'0 0.0
2017-Oct-12 21:30N 66°20' E 014°08'0 0.0
2017-Oct-12 21:00N 66°20' E 014°08'0 0.0
2017-Oct-12 20:30N 66°20' E 014°08'0 0.0
2017-Oct-12 20:00N 66°20' E 014°08'0 0.0
2017-Oct-12 19:30N 66°20' E 014°08'0 0.0
2017-Oct-12 19:00N 66°20' E 014°08'0 0.0
2017-Oct-12 18:30N 66°20' E 014°08'0 0.0
2017-Oct-12 18:00N 66°20' E 014°08'0 0.0
2017-Oct-12 17:30N 66°20' E 014°08'0 0.0
2017-Oct-12 17:00N 66°20' E 014°08'0 0.0
2017-Oct-12 16:21N 66°20' E 014°08'0 0.0
2017-Oct-12 16:00N 66°20' E 014°08'0 0.0
2017-Oct-12 15:30N 66°20' E 014°08'0 0.0
2017-Oct-12 15:00N 66°20' E 014°08'0 0.0
2017-Oct-12 14:30N 66°20' E 014°08'0 0.0
2017-Oct-12 14:00N 66°20' E 014°08'0 0.0
2017-Oct-12 13:30N 66°20' E 014°08'0 0.0
2017-Oct-12 13:00N 66°20' E 014°08'0 0.0
2017-Oct-12 12:24N 66°20' E 014°08'0 0.0
2017-Oct-12 12:00N 66°20' E 014°08'0 0.0
2017-Oct-12 11:30N 66°20' E 014°08'0 0.0
2017-Oct-12 11:00N 66°20' E 014°08'0 0.0
2017-Oct-12 10:30N 66°20' E 014°08'0 0.0
2017-Oct-12 10:00N 66°20' E 014°08'0 0.0
2017-Oct-12 09:30N 66°20' E 014°08'0 0.0
2017-Oct-12 09:00N 66°20' E 014°08'0 0.0
2017-Oct-12 08:30N 66°20' E 014°08'0 0.0
2017-Oct-12 08:00N 66°20' E 014°08'0 0.0
2017-Oct-12 07:30N 66°20' E 014°08'0 0.0
2017-Oct-12 07:00N 66°20' E 014°08'0 0.0
2017-Oct-12 06:30N 66°20' E 014°08'0 0.0
2017-Oct-12 06:00N 66°20' E 014°08'0 0.0
2017-Oct-12 05:30N 66°20' E 014°08'0 0.0
2017-Oct-12 05:00N 66°20' E 014°08'0 0.0
2017-Oct-12 04:27N 66°20' E 014°08'0 0.0
2017-Oct-12 04:00N 66°20' E 014°08'0 0.0
2017-Oct-12 03:30N 66°20' E 014°08'0 0.0
2017-Oct-12 03:00N 66°20' E 014°08'0 0.0
2017-Oct-12 02:30N 66°20' E 014°08'0 0.0
2017-Oct-12 02:00N 66°20' E 014°08'0 0.0
2017-Oct-12 01:30N 66°20' E 014°08'0 0.0
2017-Oct-12 01:00N 66°20' E 014°08'0 0.0
2017-Oct-12 00:30N 66°20' E 014°08'0 0.0
2017-Oct-12 00:00N 66°20' E 014°08'0 0.0
2017-Oct-11 23:30N 66°20' E 014°08'0 0.0
2017-Oct-11 23:00N 66°20' E 014°08'0 0.0
2017-Oct-11 22:30N 66°20' E 014°08'0 0.0
2017-Oct-11 22:00N 66°20' E 014°08'  
Track history (hours):
 
Tides and Currents Weather Stations Pressure Air Temp Water Temp Dewpoint Dewpoint Depression Visibility Wind Speed Wind Dir Waves Ship Positions

Wilson Maas

Last reported at 2017-Oct-21 21:45 UTC. Time now 2017-Oct-22 08:34 UTC.
Position N 58°11' E 005°34'.

Length 78 m; draft 3.7 m.

Type: Ship. MMSI: 314217000.

Date/timePositionNaut miles runAvg speedWind from/ knotsBaromVisibWave heightAir tempDewpointWater temp
2017-Oct-21 21:45N 58°11' E 005°34'1 4.8
2017-Oct-21 21:30N 58°13' E 005°34'2 4.5
2017-Oct-21 21:00N 58°15' E 005°33'2 4.5
2017-Oct-21 20:30N 58°17' E 005°33'2 4.2
2017-Oct-21 20:00N 58°19' E 005°33'2 4.3
2017-Oct-21 19:30N 58°21' E 005°33'2 4.8
2017-Oct-21 19:00N 58°24' E 005°33'2 4.4
2017-Oct-21 18:30N 58°26' E 005°33'2 4.2
2017-Oct-21 18:00N 58°28' E 005°33'3 5.1
2017-Oct-21 17:30N 58°31' E 005°32'3 5.5
2017-Oct-21 17:00N 58°33' E 005°31'3 6.4
2017-Oct-21 16:30N 58°36' E 005°28'3 6.8
2017-Oct-21 16:01N 58°39' E 005°26'3 6.8
2017-Oct-21 15:31N 58°42' E 005°23'4 7.2
2017-Oct-21 15:01N 58°45' E 005°20'8 7.7
2017-Oct-21 14:01N 58°52' E 005°13'4 7.6
2017-Oct-21 13:30N 58°56' E 005°10'4 7.1
2017-Oct-21 13:00N 58°59' E 005°06'4 7.3
2017-Oct-21 12:30N 59°02' E 005°02'4 7.1
2017-Oct-21 12:01N 59°04' E 004°57'4 7.0
2017-Oct-21 11:30N 59°07' E 004°52'36 6.6
2017-Oct-21 05:58N 59°43' E 004°38'4 7.7
2017-Oct-21 05:30N 59°46' E 004°38'4 7.7
2017-Oct-21 05:00N 59°50' E 004°37'4 8.1
2017-Oct-21 04:30N 59°54' E 004°37'4 8.1
2017-Oct-21 04:00N 59°58' E 004°36'4 8.5
2017-Oct-21 03:30N 60°02' E 004°35'4 8.4
2017-Oct-21 03:00N 60°07' E 004°34'4 8.3
2017-Oct-21 02:30N 60°11' E 004°34'4 7.8
2017-Oct-21 02:00N 60°15' E 004°34'4 7.9
2017-Oct-21 01:30N 60°19' E 004°33'4 8.9
2017-Oct-21 01:00N 60°23' E 004°32'5 9.2
2017-Oct-21 00:30N 60°28' E 004°31'4 8.8
2017-Oct-21 00:00N 60°32' E 004°30'4 8.1
2017-Oct-20 23:30N 60°36' E 004°30'4 8.5
2017-Oct-20 23:00N 60°40' E 004°29'4 8.4
2017-Oct-20 22:30N 60°44' E 004°29'4 8.6
2017-Oct-20 22:00N 60°49' E 004°28'4 8.0
2017-Oct-20 21:30N 60°53' E 004°28'4 8.1
2017-Oct-20 21:01N 60°57' E 004°27'4 8.6
2017-Oct-20 20:31N 61°01' E 004°27'4 8.7
2017-Oct-20 20:00N 61°05' E 004°27'5 9.5
2017-Oct-20 19:30N 61°10' E 004°27'5 9.8
2017-Oct-20 19:00N 61°15' E 004°27'5 9.2
2017-Oct-20 18:30N 61°20' E 004°27'4 9.0
2017-Oct-20 18:00N 61°24' E 004°26'4 8.9
2017-Oct-20 17:30N 61°29' E 004°26'5 9.5
2017-Oct-20 17:00N 61°33' E 004°26'5 9.3
2017-Oct-20 16:30N 61°38' E 004°27'5 9.1
2017-Oct-20 16:00N 61°42' E 004°29'5 9.1
2017-Oct-20 15:30N 61°47' E 004°32'4 8.6
2017-Oct-20 15:00N 61°51' E 004°36'9 9.2
2017-Oct-20 14:00N 61°59' E 004°43'5 9.7
2017-Oct-20 13:30N 62°04' E 004°48'5 9.9
2017-Oct-20 13:00N 62°08' E 004°54'5 9.9
2017-Oct-20 12:30N 62°12' E 004°60'5 9.9
2017-Oct-20 12:00N 62°16' E 005°05'5 9.8
2017-Oct-20 11:30N 62°20' E 005°11'4 8.9
2017-Oct-20 11:00N 62°24' E 005°17'5 9.1
2017-Oct-20 10:30N 62°27' E 005°23'5 9.5
2017-Oct-20 10:00N 62°31' E 005°30'5 9.3
2017-Oct-20 09:30N 62°34' E 005°37'5 9.2
2017-Oct-20 09:00N 62°37' E 005°44'4 8.9
2017-Oct-20 08:30N 62°40' E 005°51'5 9.5
2017-Oct-20 08:00N 62°44' E 005°58'5 9.9
2017-Oct-20 07:30N 62°47' E 006°05'510.0
2017-Oct-20 07:00N 62°51' E 006°13'510.3
2017-Oct-20 06:30N 62°54' E 006°22'510.0
2017-Oct-20 06:00N 62°57' E 006°31'5 9.5
2017-Oct-20 05:30N 62°60' E 006°39'5 9.6
2017-Oct-20 05:00N 63°03' E 006°47'5 9.1
2017-Oct-20 04:30N 63°06' E 006°55'5 9.4
2017-Oct-20 04:00N 63°09' E 007°03'5 9.8
2017-Oct-20 03:30N 63°11' E 007°12'5 9.9
2017-Oct-20 03:01N 63°13' E 007°22'5 9.3
2017-Oct-20 02:31N 63°15' E 007°32'4 8.8
2017-Oct-20 02:00N 63°14' E 007°41'4 8.7
2017-Oct-20 01:31N 63°11' E 007°47'4 7.0
2017-Oct-20 01:01N 63°07' E 007°46'0 0.4
2017-Oct-20 00:28N 63°07' E 007°46'0 0.0
2017-Oct-19 23:58N 63°07' E 007°46'0 0.0
2017-Oct-19 23:28N 63°07' E 007°46'0 0.0
2017-Oct-19 22:58N 63°07' E 007°46'0 0.0
2017-Oct-19 22:28N 63°07' E 007°46'0 0.0
2017-Oct-19 21:58N 63°07' E 007°46'0 0.0
2017-Oct-19 21:28N 63°07' E 007°46'0 0.0
2017-Oct-19 20:58N 63°07' E 007°46'0 0.0
2017-Oct-19 20:28N 63°07' E 007°46'0 0.0
2017-Oct-19 19:58N 63°07' E 007°46'0 0.0
2017-Oct-19 19:28N 63°07' E 007°46'0 0.0
2017-Oct-19 18:58N 63°07' E 007°46'0 0.0
2017-Oct-19 18:28N 63°07' E 007°46'0 0.0
2017-Oct-19 17:58N 63°07' E 007°46'0 0.0
2017-Oct-19 17:28N 63°07' E 007°46'0 0.0
2017-Oct-19 16:58N 63°07' E 007°46'0 0.0
2017-Oct-19 16:28N 63°07' E 007°46'0 0.0
2017-Oct-19 15:58N 63°07' E 007°46'0 0.0
2017-Oct-19 15:28N 63°07' E 007°46'0 0.0
2017-Oct-19 14:58N 63°07' E 007°46'0 0.0
2017-Oct-19 14:28N 63°07' E 007°46'0 0.0
2017-Oct-19 13:58N 63°07' E 007°46'0 0.0
2017-Oct-19 13:28N 63°07' E 007°46'0 0.0
2017-Oct-19 12:58N 63°07' E 007°46'0 0.0
2017-Oct-19 12:28N 63°07' E 007°46'0 0.0
2017-Oct-19 11:58N 63°07' E 007°46'0 0.0
2017-Oct-19 11:28N 63°07' E 007°46'0 0.0
2017-Oct-19 10:58N 63°07' E 007°46'0 0.0
2017-Oct-19 10:28N 63°07' E 007°46'0 0.0
2017-Oct-19 09:58N 63°07' E 007°46'0 0.0
2017-Oct-19 09:28N 63°07' E 007°46'0 0.0
2017-Oct-19 08:58N 63°07' E 007°46'0 0.0
2017-Oct-19 08:28N 63°07' E 007°46'0 0.0
2017-Oct-19 07:58N 63°07' E 007°46'0 0.0
2017-Oct-19 07:28N 63°07' E 007°46'0 0.0
2017-Oct-19 06:59N 63°07' E 007°46'0 0.0
2017-Oct-19 06:28N 63°07' E 007°46'0 0.0
2017-Oct-19 05:58N 63°07' E 007°46'0 0.0
2017-Oct-19 05:28N 63°07' E 007°46'0 0.0
2017-Oct-19 04:58N 63°07' E 007°46'0 0.0
2017-Oct-19 04:28N 63°07' E 007°46'0 0.0
2017-Oct-19 03:58N 63°07' E 007°46'0 0.0
2017-Oct-19 03:28N 63°07' E 007°46'0 0.0
2017-Oct-19 02:58N 63°07' E 007°46'0 0.0
2017-Oct-19 02:28N 63°07' E 007°46'0 0.0
2017-Oct-19 01:58N 63°07' E 007°46'0 0.0
2017-Oct-19 01:28N 63°07' E 007°46'0 0.0
2017-Oct-19 00:58N 63°07' E 007°46'0 0.0
2017-Oct-19 00:28N 63°07' E 007°46'0 0.0
2017-Oct-18 23:58N 63°07' E 007°46'0 0.0
2017-Oct-18 23:28N 63°07' E 007°46'0 0.0
2017-Oct-18 22:58N 63°07' E 007°46'0 0.0
2017-Oct-18 22:28N 63°07' E 007°46'0 0.0
2017-Oct-18 21:58N 63°07' E 007°46'0 0.0
2017-Oct-18 21:28N 63°07' E 007°46'0 0.0
2017-Oct-18 20:58N 63°07' E 007°46'0 0.0
2017-Oct-18 20:28N 63°07' E 007°46'0 0.0
2017-Oct-18 19:58N 63°07' E 007°46'0 0.0
2017-Oct-18 19:28N 63°07' E 007°46'0 0.0
2017-Oct-18 18:58N 63°07' E 007°46'0 0.0
2017-Oct-18 18:28N 63°07' E 007°46'0 0.0
2017-Oct-18 17:58N 63°07' E 007°46'0 0.0
2017-Oct-18 17:28N 63°07' E 007°46'0 0.0
2017-Oct-18 16:58N 63°07' E 007°46'0 0.0
2017-Oct-18 16:28N 63°07' E 007°46'0 0.0
2017-Oct-18 15:58N 63°07' E 007°46'0 0.0
2017-Oct-18 15:28N 63°07' E 007°46'0 0.0
2017-Oct-18 14:58N 63°07' E 007°46'0 0.0
2017-Oct-18 13:58N 63°07' E 007°46'0 0.0
2017-Oct-18 13:28N 63°07' E 007°46'0 0.0
2017-Oct-18 12:58N 63°07' E 007°46'0 0.0
2017-Oct-18 12:28N 63°07' E 007°46'0 0.0
2017-Oct-18 11:58N 63°07' E 007°46'0 0.0
2017-Oct-18 11:28N 63°07' E 007°46'0 0.0
2017-Oct-18 10:58N 63°07' E 007°46'0 0.0
2017-Oct-18 10:28N 63°07' E 007°46'0 0.0
2017-Oct-18 09:58N 63°07' E 007°46'0 0.0
2017-Oct-18 09:28N 63°07' E 007°46'0 0.0
2017-Oct-18 08:58N 63°07' E 007°46'0 0.0
2017-Oct-18 08:28N 63°07' E 007°46'0 0.0
2017-Oct-18 07:58N 63°07' E 007°46'0 0.0
2017-Oct-18 07:28N 63°07' E 007°46'0 0.0
2017-Oct-18 06:58N 63°07' E 007°46'0 0.0
2017-Oct-18 06:28N 63°07' E 007°46'0 0.0
2017-Oct-18 05:58N 63°07' E 007°46'0 0.0
2017-Oct-18 05:28N 63°07' E 007°46'0 0.0
2017-Oct-18 04:58N 63°07' E 007°46'0 0.0
2017-Oct-18 04:28N 63°07' E 007°46'0 0.0
2017-Oct-18 03:58N 63°07' E 007°46'0 0.0
2017-Oct-18 03:28N 63°07' E 007°46'0 0.0
2017-Oct-18 02:58N 63°07' E 007°46'0 0.0
2017-Oct-18 02:28N 63°07' E 007°46'0 0.0
2017-Oct-18 01:58N 63°07' E 007°46'0 0.0
2017-Oct-18 01:28N 63°07' E 007°46'0 0.0
2017-Oct-18 00:58N 63°07' E 007°46'0 0.0
2017-Oct-18 00:28N 63°07' E 007°46'0 0.0
2017-Oct-17 23:58N 63°07' E 007°46'0 0.0
2017-Oct-17 23:28N 63°07' E 007°46'0 0.0
2017-Oct-17 22:58N 63°07' E 007°46'0 0.0
2017-Oct-17 22:28N 63°07' E 007°46'0 0.0
2017-Oct-17 21:58N 63°07' E 007°46'0 0.0
2017-Oct-17 21:28N 63°07' E 007°46'0 0.0
2017-Oct-17 20:58N 63°07' E 007°46'0 0.0
2017-Oct-17 20:28N 63°07' E 007°46'0 0.0
2017-Oct-17 19:58N 63°07' E 007°46'0 0.0
2017-Oct-17 19:28N 63°07' E 007°46'0 0.0
2017-Oct-17 18:58N 63°07' E 007°46'0 0.0
2017-Oct-17 18:28N 63°07' E 007°46'0 0.0
2017-Oct-17 17:58N 63°07' E 007°46'0 0.0
2017-Oct-17 17:28N 63°07' E 007°46'0 0.0
2017-Oct-17 16:58N 63°07' E 007°46'0 0.0
2017-Oct-17 16:28N 63°07' E 007°46'0 0.0
2017-Oct-17 15:58N 63°07' E 007°46'0 0.0
2017-Oct-17 15:28N 63°07' E 007°46'0 0.0
2017-Oct-17 14:58N 63°07' E 007°46'0 0.0
2017-Oct-17 14:28N 63°07' E 007°46'0 0.0
2017-Oct-17 13:58N 63°07' E 007°46'0 0.0
2017-Oct-17 13:28N 63°07' E 007°46'0 0.0
2017-Oct-17 12:58N 63°07' E 007°46'0 0.0
2017-Oct-17 12:28N 63°07' E 007°46'0 0.0
2017-Oct-17 11:58N 63°07' E 007°46'0 0.0
2017-Oct-17 11:28N 63°07' E 007°46'0 0.0
2017-Oct-17 10:58N 63°07' E 007°46'0 0.0
2017-Oct-17 10:28N 63°07' E 007°46'0 0.0
2017-Oct-17 09:58N 63°07' E 007°46'0 0.0
2017-Oct-17 09:28N 63°07' E 007°46'0 0.0
2017-Oct-17 08:58N 63°07' E 007°46'0 0.0
2017-Oct-17 08:28N 63°07' E 007°46'0 0.0
2017-Oct-17 07:58N 63°07' E 007°46'0 0.0
2017-Oct-17 07:28N 63°07' E 007°46'0 0.0
2017-Oct-17 06:58N 63°07' E 007°46'0 0.0
2017-Oct-17 06:28N 63°07' E 007°46'0 0.0
2017-Oct-17 05:58N 63°07' E 007°46'0 0.0
2017-Oct-17 05:28N 63°07' E 007°46'0 0.0
2017-Oct-17 04:58N 63°07' E 007°46'0 0.0
2017-Oct-17 04:28N 63°07' E 007°46'0 0.0
2017-Oct-17 03:58N 63°07' E 007°46'0 0.0
2017-Oct-17 03:28N 63°07' E 007°46'0 0.0
2017-Oct-17 02:58N 63°07' E 007°46'0 0.0
2017-Oct-17 02:28N 63°07' E 007°46'0 0.0
2017-Oct-17 01:58N 63°07' E 007°46'0 0.0
2017-Oct-17 01:28N 63°07' E 007°46'0 0.0
2017-Oct-17 00:58N 63°07' E 007°46'0 0.0
2017-Oct-17 00:28N 63°07' E 007°46'0 0.0
2017-Oct-16 23:58N 63°07' E 007°46'0 0.0
2017-Oct-16 23:28N 63°07' E 007°46'0 0.0
2017-Oct-16 22:58N 63°07' E 007°46'0 0.0
2017-Oct-16 22:28N 63°07' E 007°46'0 0.0
2017-Oct-16 21:58N 63°07' E 007°46'0 0.0
2017-Oct-16 21:28N 63°07' E 007°46'0 0.0
2017-Oct-16 20:58N 63°07' E 007°46'0 0.0
2017-Oct-16 20:28N 63°07' E 007°46'0 0.0
2017-Oct-16 19:58N 63°07' E 007°46'0 0.0
2017-Oct-16 19:28N 63°07' E 007°46'0 0.0
2017-Oct-16 18:59N 63°07' E 007°46'1 2.1
2017-Oct-16 18:30N 63°08' E 007°47'4 8.5
2017-Oct-16 18:00N 63°12' E 007°50'5 9.8
2017-Oct-16 17:30N 63°14' E 008°00'5 9.7
2017-Oct-16 17:00N 63°17' E 008°09'5 9.5
2017-Oct-16 16:30N 63°20' E 008°17'5 9.6
2017-Oct-16 16:00N 63°23' E 008°26'5 9.7
2017-Oct-16 15:30N 63°25' E 008°36'5 9.9
2017-Oct-16 15:00N 63°27' E 008°46'1010.0
2017-Oct-16 14:00N 63°30' E 009°07'5 9.6
2017-Oct-16 13:30N 63°33' E 009°15'510.6
2017-Oct-16 13:00N 63°38' E 009°15'510.8
2017-Oct-16 12:30N 63°44' E 009°15'510.1
2017-Oct-16 12:00N 63°49' E 009°17'5 9.6
2017-Oct-16 11:30N 63°53' E 009°21'5 9.7
2017-Oct-16 11:00N 63°58' E 009°24'510.4
2017-Oct-16 10:30N 64°03' E 009°27'510.4
2017-Oct-16 10:00N 64°08' E 009°32'5 9.8
2017-Oct-16 09:30N 64°12' E 009°38'4 8.9
2017-Oct-16 09:00N 64°16' E 009°44'4 8.8
2017-Oct-16 08:30N 64°19' E 009°50'4 8.8
2017-Oct-16 08:00N 64°22' E 009°56'4 8.6
2017-Oct-16 07:30N 64°26' E 010°03'4 8.2
2017-Oct-16 07:00N 64°29' E 010°10'4 7.6
2017-Oct-16 06:30N 64°31' E 010°16'4 7.1
2017-Oct-16 06:00N 64°33' E 010°23'3 6.7
2017-Oct-16 05:30N 64°36' E 010°27'5 9.1
2017-Oct-16 05:00N 64°41' E 010°23'4 8.4
2017-Oct-16 04:30N 64°45' E 010°21'15 6.8
2017-Oct-16 02:19N 64°59' E 010°25'2 6.8
2017-Oct-16 02:00N 65°01' E 010°26'3 5.6
2017-Oct-16 01:30N 65°04' E 010°28'3 5.7
2017-Oct-16 01:00N 65°07' E 010°31'3 6.7
2017-Oct-16 00:30N 65°10' E 010°33'4 7.3
2017-Oct-16 00:00N 65°13' E 010°36'4 7.3
2017-Oct-15 23:30N 65°17' E 010°39'3 6.7
2017-Oct-15 23:00N 65°20' E 010°42'4 7.4
2017-Oct-15 22:30N 65°23' E 010°45'4 7.5
2017-Oct-15 22:00N 65°27' E 010°48'4 7.6
2017-Oct-15 21:30N 65°30' E 010°51'50 7.3
2017-Oct-15 14:44N 66°15' E 011°44'6 7.9
2017-Oct-15 14:00N 66°16' E 011°59'4 8.5
2017-Oct-15 13:30N 66°17' E 012°09'4 8.8
2017-Oct-15 13:00N 66°16' E 012°20'5 9.4
2017-Oct-15 12:30N 66°15' E 012°31'5 9.7
2017-Oct-15 11:59N 66°13' E 012°42'5 9.9
2017-Oct-15 11:30N 66°10' E 012°51'510.0
2017-Oct-15 11:00N 66°10' E 013°03'5 9.9
2017-Oct-15 10:30N 66°13' E 013°14'4 8.8
2017-Oct-15 10:00N 66°14' E 013°24'510.0
2017-Oct-15 09:30N 66°14' E 013°37'5 9.6
2017-Oct-15 09:00N 66°15' E 013°49'5 9.3
2017-Oct-15 08:29N 66°17' E 013°59'3 6.3
2017-Oct-15 07:59N 66°18' E 014°07'0 0.0
2017-Oct-15 07:29N 66°18' E 014°07'0 0.0
2017-Oct-15 06:59N 66°18' E 014°07'0 0.0
2017-Oct-15 06:29N 66°18' E 014°07'0 0.0
2017-Oct-15 05:59N 66°18' E 014°07'0 0.0
2017-Oct-15 05:29N 66°18' E 014°07'0 0.0
2017-Oct-15 04:59N 66°18' E 014°07'0 0.0
2017-Oct-15 04:29N 66°18' E 014°07'0 0.0
2017-Oct-15 03:59N 66°18' E 014°07'0 0.0
2017-Oct-15 03:29N 66°18' E 014°07'0 0.0
2017-Oct-15 02:59N 66°18' E 014°07'0 0.0
2017-Oct-15 02:29N 66°18' E 014°07'0 0.0
2017-Oct-15 01:59N 66°18' E 014°07'0 0.0
2017-Oct-15 01:26N 66°18' E 014°07'0 0.0
2017-Oct-15 00:59N 66°18' E 014°07'0 0.0
2017-Oct-15 00:29N 66°18' E 014°07'0 0.0
2017-Oct-14 23:59N 66°18' E 014°07'0 0.0
2017-Oct-14 23:29N 66°18' E 014°07'0 0.0
2017-Oct-14 22:59N 66°18' E 014°07'0 0.0
2017-Oct-14 22:29N 66°18' E 014°07'0 0.0
2017-Oct-14 21:59N 66°18' E 014°07'0 0.0
2017-Oct-14 21:29N 66°18' E 014°07'0 0.0
2017-Oct-14 20:59N 66°18' E 014°07'0 0.0
2017-Oct-14 20:29N 66°18' E 014°07'0 0.0
2017-Oct-14 19:59N 66°18' E 014°07'0 0.0
2017-Oct-14 19:29N 66°18' E 014°07'0 0.0
2017-Oct-14 18:59N 66°18' E 014°07'0 0.0
2017-Oct-14 18:26N 66°18' E 014°07'0 0.0
2017-Oct-14 17:59N 66°18' E 014°07'0 0.0
2017-Oct-14 17:29N 66°18' E 014°07'0 0.0
2017-Oct-14 16:59N 66°18' E 014°07'0 0.0
2017-Oct-14 16:29N 66°18' E 014°07'0 0.0
2017-Oct-14 15:59N 66°18' E 014°07'0 0.0
2017-Oct-14 15:29N 66°18' E 014°07'0 0.0
2017-Oct-14 14:59N 66°18' E 014°07'0 0.0
2017-Oct-14 14:29N 66°18' E 014°07'0 0.0
2017-Oct-14 13:59N 66°18' E 014°07'0 0.0
2017-Oct-14 13:29N 66°18' E 014°07'0 0.0
2017-Oct-14 12:59N 66°18' E 014°07'0 0.0
2017-Oct-14 12:26N 66°18' E 014°07'0 0.0
2017-Oct-14 11:59N 66°18' E 014°07'0 0.0
2017-Oct-14 11:26N 66°18' E 014°07'0 0.0
2017-Oct-14 10:59N 66°18' E 014°07'0 0.0
2017-Oct-14 10:29N 66°18' E 014°07'0 0.0
2017-Oct-14 09:59N 66°18' E 014°07'0 0.0
2017-Oct-14 09:29N 66°18' E 014°07'0 0.0
2017-Oct-14 08:59N 66°18' E 014°07'0 0.0
2017-Oct-14 08:29N 66°18' E 014°07'0 0.0
2017-Oct-14 07:59N 66°18' E 014°07'0 0.0
2017-Oct-14 07:29N 66°18' E 014°07'0 0.0
2017-Oct-14 06:59N 66°18' E 014°07'0 0.0
2017-Oct-14 06:29N 66°18' E 014°07'0 0.0
2017-Oct-14 05:59N 66°18' E 014°07'0 0.0
2017-Oct-14 05:29N 66°18' E 014°07'0 0.0
2017-Oct-14 04:59N 66°18' E 014°07'0 0.0
2017-Oct-14 04:29N 66°18' E 014°07'0 0.0
2017-Oct-14 03:59N 66°18' E 014°07'0 0.0
2017-Oct-14 03:29N 66°18' E 014°07'0 0.0
2017-Oct-14 02:56N 66°18' E 014°07'0 0.0
2017-Oct-14 02:29N 66°18' E 014°07'0 0.0
2017-Oct-14 01:59N 66°18' E 014°07'0 0.0
2017-Oct-14 01:29N 66°18' E 014°07'0 0.0
2017-Oct-14 00:59N 66°18' E 014°07'0 0.0
2017-Oct-14 00:29N 66°18' E 014°07'0 0.0
2017-Oct-13 23:59N 66°18' E 014°07'0 0.0
2017-Oct-13 23:29N 66°18' E 014°07'0 0.0
2017-Oct-13 22:59N 66°18' E 014°07'0 0.0
2017-Oct-13 22:29N 66°18' E 014°07'0 0.0
2017-Oct-13 21:59N 66°18' E 014°07'0 0.0
2017-Oct-13 21:29N 66°18' E 014°07'0 0.0
2017-Oct-13 20:59N 66°18' E 014°07'0 0.0
2017-Oct-13 20:29N 66°18' E 014°07'0 0.0
2017-Oct-13 19:59N 66°18' E 014°07'0 0.0
2017-Oct-13 19:29N 66°18' E 014°07'0 0.0
2017-Oct-13 18:59N 66°18' E 014°07'0 0.0
2017-Oct-13 18:29N 66°18' E 014°07'0 0.0
2017-Oct-13 17:59N 66°18' E 014°07'0 0.0
2017-Oct-13 17:29N 66°18' E 014°07'0 0.0
2017-Oct-13 16:59N 66°18' E 014°07'0 0.0
2017-Oct-13 16:29N 66°18' E 014°07'0 0.0
2017-Oct-13 15:59N 66°18' E 014°07'0 0.0
2017-Oct-13 15:29N 66°18' E 014°07'0 0.0
2017-Oct-13 14:59N 66°18' E 014°07'0 0.0
2017-Oct-13 14:29N 66°18' E 014°07'0 0.0
2017-Oct-13 13:59N 66°18' E 014°07'0 0.0
2017-Oct-13 13:29N 66°18' E 014°07'0 0.0
2017-Oct-13 12:59N 66°18' E 014°07'0 0.1
2017-Oct-13 12:29N 66°18' E 014°07'0 0.0
2017-Oct-13 11:59N 66°18' E 014°07'0 0.0
2017-Oct-13 11:29N 66°18' E 014°07'0 0.0
2017-Oct-13 10:59N 66°18' E 014°07'0 0.0
2017-Oct-13 10:29N 66°18' E 014°07'0 0.0
2017-Oct-13 09:59N 66°18' E 014°07'0 0.0
2017-Oct-13 09:29N 66°18' E 014°07'0 0.0
2017-Oct-13 08:59N 66°18' E 014°07'0 0.0
2017-Oct-13 08:29N 66°18' E 014°07'0 0.0
2017-Oct-13 07:59N 66°18' E 014°07'0 0.0
2017-Oct-13 07:29N 66°18' E 014°07'0 0.0
2017-Oct-13 06:59N 66°18' E 014°07'0 0.0
2017-Oct-13 06:29N 66°18' E 014°07'0 0.0
2017-Oct-13 05:59N 66°18' E 014°07'0 0.0
2017-Oct-13 05:29N 66°18' E 014°07'0 0.0
2017-Oct-13 04:59N 66°18' E 014°07'0 0.0
2017-Oct-13 04:29N 66°18' E 014°07'0 0.8
2017-Oct-13 03:59N 66°19' E 014°07'1 1.9
2017-Oct-13 03:30N 66°20' E 014°08'0 0.0
2017-Oct-13 03:00N 66°20' E 014°08'0 0.0
2017-Oct-13 02:30N 66°20' E 014°08'0 0.0
2017-Oct-13 02:00N 66°20' E 014°08'0 0.0
2017-Oct-13 01:30N 66°20' E 014°08'0 0.0
2017-Oct-13 01:00N 66°20' E 014°08'0 0.0
2017-Oct-13 00:30N 66°20' E 014°08'0 0.0
2017-Oct-13 00:00N 66°20' E 014°08'0 0.0
2017-Oct-12 23:30N 66°20' E 014°08'0 0.0
2017-Oct-12 23:00N 66°20' E 014°08'0 0.0
2017-Oct-12 22:30N 66°20' E 014°08'0 0.0
2017-Oct-12 21:57N 66°20' E 014°08'0 0.0
2017-Oct-12 21:30N 66°20' E 014°08'0 0.0
2017-Oct-12 21:00N 66°20' E 014°08'0 0.0
2017-Oct-12 20:30N 66°20' E 014°08'0 0.0
2017-Oct-12 20:00N 66°20' E 014°08'0 0.0
2017-Oct-12 19:30N 66°20' E 014°08'0 0.0
2017-Oct-12 19:00N 66°20' E 014°08'0 0.0
2017-Oct-12 18:30N 66°20' E 014°08'0 0.0
2017-Oct-12 18:00N 66°20' E 014°08'0 0.0
2017-Oct-12 17:30N 66°20' E 014°08'0 0.0
2017-Oct-12 17:00N 66°20' E 014°08'0 0.0
2017-Oct-12 16:21N 66°20' E 014°08'0 0.0
2017-Oct-12 16:00N 66°20' E 014°08'0 0.0
2017-Oct-12 15:30N 66°20' E 014°08'0 0.0
2017-Oct-12 15:00N 66°20' E 014°08'0 0.0
2017-Oct-12 14:30N 66°20' E 014°08'0 0.0
2017-Oct-12 14:00N 66°20' E 014°08'0 0.0
2017-Oct-12 13:30N 66°20' E 014°08'0 0.0
2017-Oct-12 13:00N 66°20' E 014°08'0 0.0
2017-Oct-12 12:24N 66°20' E 014°08'0 0.0
2017-Oct-12 12:00N 66°20' E 014°08'0 0.0
2017-Oct-12 11:30N 66°20' E 014°08'0 0.0
2017-Oct-12 11:00N 66°20' E 014°08'0 0.0
2017-Oct-12 10:30N 66°20' E 014°08'0 0.0
2017-Oct-12 10:00N 66°20' E 014°08'0 0.0
2017-Oct-12 09:30N 66°20' E 014°08'0 0.0
2017-Oct-12 09:00N 66°20' E 014°08'0 0.0
2017-Oct-12 08:30N 66°20' E 014°08'0 0.0
2017-Oct-12 08:00N 66°20' E 014°08'0 0.0
2017-Oct-12 07:30N 66°20' E 014°08'0 0.0
2017-Oct-12 07:00N 66°20' E 014°08'0 0.0
2017-Oct-12 06:30N 66°20' E 014°08'0 0.0
2017-Oct-12 06:00N 66°20' E 014°08'0 0.0
2017-Oct-12 05:30N 66°20' E 014°08'0 0.0
2017-Oct-12 05:00N 66°20' E 014°08'0 0.0
2017-Oct-12 04:27N 66°20' E 014°08'0 0.0
2017-Oct-12 04:00N 66°20' E 014°08'0 0.0
2017-Oct-12 03:30N 66°20' E 014°08'0 0.0
2017-Oct-12 03:00N 66°20' E 014°08'0 0.0
2017-Oct-12 02:30N 66°20' E 014°08'0 0.0
2017-Oct-12 02:00N 66°20' E 014°08'0 0.0
2017-Oct-12 01:30N 66°20' E 014°08'0 0.0
2017-Oct-12 01:00N 66°20' E 014°08'0 0.0
2017-Oct-12 00:30N 66°20' E 014°08'0 0.0
2017-Oct-12 00:00N 66°20' E 014°08'0 0.0
2017-Oct-11 23:30N 66°20' E 014°08'0 0.0
2017-Oct-11 23:00N 66°20' E 014°08'0 0.0
2017-Oct-11 22:30N 66°20' E 014°08'0 0.0
2017-Oct-11 22:00N 66°20' E 014°08'  

Dump ship's entire track history